Time;durP1;ratioP1;P1;durP2;ratioP2;P2;SDS_P1;SDS_P2;PMS_P1;PMS_P2;Temp;Humidity;BMP_temperature;BMP_pressure;BME280_temperature;BME280_humidity;BME280_pressure;Samples;Min_cycle;Max_cycle;Signal;HPM_P1;HPM_P2
2023/04/01 00:00:01;;;;;;;0.9;0.9;;;;;;;9.7;100.0;98910;;;;
2023/04/01 00:01:00;;;;;;;0.9;0.9;;;;;;;9.7;100.0;98910;;;;
2023/04/01 00:02:00;;;;;;;0.9;0.9;;;;;;;9.7;100.0;98910;;;;
2023/04/01 00:03:00;;;;;;;0.9;0.9;;;;;;;9.7;100.0;98910;;;;
2023/04/01 00:04:01;;;;;;;0.9;0.9;;;;;;;9.8;100.0;98910;;;;
2023/04/01 00:05:01;;;;;;;0.9;0.9;;;;;;;9.8;100.0;98910;;;;
2023/04/01 00:06:01;;;;;;;0.9;0.9;;;;;;;9.8;100.0;98910;;;;
2023/04/01 00:07:01;;;;;;;0.9;0.9;;;;;;;9.8;100.0;98910;;;;
2023/04/01 00:08:00;;;;;;;0.9;0.9;;;;;;;9.9;100.0;98910;;;;
2023/04/01 00:09:00;;;;;;;0.9;0.9;;;;;;;9.9;100.0;98910;;;;
2023/04/01 00:10:00;;;;;;;0.9;0.9;;;;;;;9.9;100.0;98900;;;;
2023/04/01 00:11:00;;;;;;;0.9;0.9;;;;;;;9.9;100.0;98900;;;;
2023/04/01 00:12:01;;;;;;;0.9;0.9;;;;;;;9.8;100.0;98920;;;;
2023/04/01 00:13:00;;;;;;;0.9;0.9;;;;;;;9.8;100.0;98920;;;;
2023/04/01 00:14:00;;;;;;;0.9;0.9;;;;;;;9.8;100.0;98910;;;;
2023/04/01 00:15:01;;;;;;;0.9;0.9;;;;;;;9.8;100.0;98910;;;;
2023/04/01 00:16:04;;;;;;;0.8;0.8;;;;;;;9.8;100.0;98910;;;;
2023/04/01 00:17:00;;;;;;;0.8;0.8;;;;;;;9.8;100.0;98910;;;;
2023/04/01 00:18:00;;;;;;;0.8;0.8;;;;;;;9.8;100.0;98910;;;;
2023/04/01 00:19:00;;;;;;;0.8;0.8;;;;;;;9.8;100.0;98910;;;;
2023/04/01 00:20:00;;;;;;;0.8;0.8;;;;;;;9.8;100.0;98920;;;;
2023/04/01 00:21:00;;;;;;;0.8;0.8;;;;;;;9.8;100.0;98920;;;;
2023/04/01 00:22:01;;;;;;;0.8;0.8;;;;;;;9.7;100.0;98920;;;;
2023/04/01 00:23:01;;;;;;;0.8;0.8;;;;;;;9.7;100.0;98920;;;;
2023/04/01 00:24:00;;;;;;;0.8;0.8;;;;;;;9.8;100.0;98930;;;;
2023/04/01 00:25:00;;;;;;;0.8;0.8;;;;;;;9.8;100.0;98930;;;;
2023/04/01 00:26:01;;;;;;;0.8;0.8;;;;;;;9.8;100.0;98920;;;;
2023/04/01 00:27:00;;;;;;;0.8;0.8;;;;;;;9.8;100.0;98920;;;;
2023/04/01 00:28:00;;;;;;;0.8;0.8;;;;;;;9.7;100.0;98910;;;;
2023/04/01 00:29:01;;;;;;;0.8;0.8;;;;;;;9.7;100.0;98910;;;;
2023/04/01 00:30:01;;;;;;;0.8;0.8;;;;;;;9.8;100.0;98920;;;;
2023/04/01 00:31:04;;;;;;;0.8;0.8;;;;;;;9.8;100.0;98920;;;;
2023/04/01 00:32:00;;;;;;;0.8;0.8;;;;;;;9.8;100.0;98920;;;;
2023/04/01 00:33:01;;;;;;;0.8;0.8;;;;;;;9.8;100.0;98920;;;;
2023/04/01 00:34:00;;;;;;;0.8;0.8;;;;;;;9.6;100.0;98920;;;;
2023/04/01 00:35:00;;;;;;;0.8;0.8;;;;;;;9.6;100.0;98920;;;;
2023/04/01 00:36:10;;;;;;;1.0;1.0;;;;;;;9.8;100.0;98920;;;;
2023/04/01 00:37:00;;;;;;;1.0;1.0;;;;;;;9.8;100.0;98920;;;;
2023/04/01 00:38:00;;;;;;;1.0;1.0;;;;;;;9.8;100.0;98920;;;;
2023/04/01 00:39:00;;;;;;;1.0;1.0;;;;;;;9.8;100.0;98920;;;;
2023/04/01 00:40:00;;;;;;;1.0;1.0;;;;;;;9.8;100.0;98920;;;;
2023/04/01 00:41:00;;;;;;;1.0;1.0;;;;;;;9.8;100.0;98920;;;;
2023/04/01 00:42:01;;;;;;;1.0;1.0;;;;;;;9.8;100.0;98920;;;;
2023/04/01 00:43:01;;;;;;;1.0;1.0;;;;;;;9.8;100.0;98920;;;;
2023/04/01 00:44:10;;;;;;;1.0;1.0;;;;;;;9.7;100.0;98930;;;;
2023/04/01 00:45:10;;;;;;;1.0;1.0;;;;;;;9.7;100.0;98930;;;;
2023/04/01 00:46:00;;;;;;;1.0;1.0;;;;;;;9.7;100.0;98930;;;;
2023/04/01 00:47:01;;;;;;;1.0;1.0;;;;;;;9.7;100.0;98930;;;;
2023/04/01 00:48:04;;;;;;;1.0;1.0;;;;;;;9.8;100.0;98930;;;;
2023/04/01 00:49:01;;;;;;;1.0;1.0;;;;;;;9.8;100.0;98930;;;;
2023/04/01 00:50:00;;;;;;;1.0;1.0;;;;;;;9.7;100.0;98930;;;;
2023/04/01 00:51:01;;;;;;;1.0;1.0;;;;;;;9.7;100.0;98930;;;;
2023/04/01 00:52:02;;;;;;;1.0;1.0;;;;;;;9.7;100.0;98930;;;;
2023/04/01 00:53:01;;;;;;;1.0;1.0;;;;;;;9.7;100.0;98930;;;;
2023/04/01 00:54:03;;;;;;;1.0;1.0;;;;;;;9.8;100.0;98940;;;;
2023/04/01 00:55:01;;;;;;;1.0;1.0;;;;;;;9.8;100.0;98940;;;;
2023/04/01 00:56:04;;;;;;;0.8;0.8;;;;;;;9.8;100.0;98940;;;;
2023/04/01 00:57:02;;;;;;;0.8;0.8;;;;;;;9.8;100.0;98940;;;;
2023/04/01 00:58:03;;;;;;;0.8;0.8;;;;;;;9.9;100.0;98930;;;;
2023/04/01 00:59:02;;;;;;;0.8;0.8;;;;;;;9.9;100.0;98930;;;;
2023/04/01 01:00:00;;;;;;;0.8;0.8;;;;;;;9.8;100.0;98940;;;;
2023/04/01 01:01:01;;;;;;;0.8;0.8;;;;;;;9.8;100.0;98940;;;;
2023/04/01 01:02:01;;;;;;;0.8;0.8;;;;;;;9.7;100.0;98940;;;;
2023/04/01 01:03:02;;;;;;;0.8;0.8;;;;;;;9.7;100.0;98940;;;;
2023/04/01 01:04:02;;;;;;;0.8;0.8;;;;;;;9.7;100.0;98940;;;;
2023/04/01 01:05:01;;;;;;;0.8;0.8;;;;;;;9.7;100.0;98940;;;;
2023/04/01 01:06:00;;;;;;;0.8;0.8;;;;;;;9.8;100.0;98940;;;;
2023/04/01 01:07:00;;;;;;;0.8;0.8;;;;;;;9.8;100.0;98940;;;;
2023/04/01 01:08:10;;;;;;;0.8;0.8;;;;;;;9.8;100.0;98940;;;;
2023/04/01 01:09:00;;;;;;;0.8;0.8;;;;;;;9.8;100.0;98940;;;;
2023/04/01 01:10:07;;;;;;;0.8;0.8;;;;;;;9.8;100.0;98940;;;;
2023/04/01 01:11:02;;;;;;;0.8;0.8;;;;;;;9.8;100.0;98940;;;;
2023/04/01 01:12:07;;;;;;;0.8;0.8;;;;;;;9.7;100.0;98940;;;;
2023/04/01 01:13:10;;;;;;;0.8;0.8;;;;;;;9.7;100.0;98940;;;;
2023/04/01 01:14:08;;;;;;;0.8;0.8;;;;;;;9.8;100.0;98940;;;;
2023/04/01 01:15:07;;;;;;;0.8;0.8;;;;;;;9.8;100.0;98940;;;;
2023/04/01 01:16:06;;;;;;;0.8;0.8;;;;;;;9.8;100.0;98950;;;;
2023/04/01 01:17:07;;;;;;;0.8;0.8;;;;;;;9.8;100.0;98950;;;;
2023/04/01 01:18:11;;;;;;;0.8;0.8;;;;;;;9.9;100.0;98950;;;;
2023/04/01 01:19:10;;;;;;;0.8;0.8;;;;;;;9.9;100.0;98950;;;;
2023/04/01 01:20:01;;;;;;;0.8;0.8;;;;;;;9.8;100.0;98950;;;;
2023/04/01 01:21:00;;;;;;;0.8;0.8;;;;;;;9.8;100.0;98950;;;;
2023/04/01 01:22:10;;;;;;;0.8;0.8;;;;;;;9.8;100.0;98950;;;;
2023/04/01 01:23:01;;;;;;;0.8;0.8;;;;;;;9.8;100.0;98950;;;;
2023/04/01 01:24:10;;;;;;;0.8;0.8;;;;;;;9.8;100.0;98950;;;;
2023/04/01 01:25:10;;;;;;;0.8;0.8;;;;;;;9.8;100.0;98950;;;;
2023/04/01 01:26:10;;;;;;;0.8;0.8;;;;;;;9.8;100.0;98950;;;;
2023/04/01 01:27:02;;;;;;;0.8;0.8;;;;;;;9.8;100.0;98950;;;;
2023/04/01 01:28:12;;;;;;;0.8;0.8;;;;;;;9.8;100.0;98950;;;;
2023/04/01 01:29:10;;;;;;;0.8;0.8;;;;;;;9.8;100.0;98950;;;;
2023/04/01 01:30:10;;;;;;;0.8;0.8;;;;;;;9.8;100.0;98950;;;;
2023/04/01 01:31:00;;;;;;;0.8;0.8;;;;;;;9.8;100.0;98950;;;;
2023/04/01 01:32:10;;;;;;;0.8;0.8;;;;;;;9.9;100.0;98960;;;;
2023/04/01 01:33:01;;;;;;;0.8;0.8;;;;;;;9.9;100.0;98960;;;;
2023/04/01 01:34:04;;;;;;;0.8;0.8;;;;;;;9.8;100.0;98960;;;;
2023/04/01 01:35:10;;;;;;;0.8;0.8;;;;;;;9.8;100.0;98960;;;;
2023/04/01 01:36:03;;;;;;;1.0;1.0;;;;;;;9.8;100.0;98950;;;;
2023/04/01 01:37:05;;;;;;;1.0;1.0;;;;;;;9.8;100.0;98950;;;;
2023/04/01 01:38:03;;;;;;;1.0;1.0;;;;;;;9.8;100.0;98960;;;;
2023/04/01 01:39:01;;;;;;;1.0;1.0;;;;;;;9.8;100.0;98960;;;;
2023/04/01 01:40:04;;;;;;;1.0;1.0;;;;;;;9.8;100.0;98960;;;;
2023/04/01 01:41:01;;;;;;;1.0;1.0;;;;;;;9.8;100.0;98960;;;;
2023/04/01 01:42:03;;;;;;;1.0;1.0;;;;;;;9.9;100.0;98960;;;;
2023/04/01 01:43:05;;;;;;;1.0;1.0;;;;;;;9.9;100.0;98960;;;;
2023/04/01 01:44:02;;;;;;;1.0;1.0;;;;;;;9.9;100.0;98960;;;;
2023/04/01 01:45:02;;;;;;;1.0;1.0;;;;;;;9.9;100.0;98960;;;;
2023/04/01 01:46:02;;;;;;;1.0;1.0;;;;;;;9.8;100.0;98970;;;;
2023/04/01 01:47:01;;;;;;;1.0;1.0;;;;;;;9.8;100.0;98970;;;;
2023/04/01 01:48:02;;;;;;;1.0;1.0;;;;;;;9.9;100.0;98970;;;;
2023/04/01 01:49:02;;;;;;;1.0;1.0;;;;;;;9.9;100.0;98970;;;;
2023/04/01 01:50:01;;;;;;;1.0;1.0;;;;;;;9.9;100.0;98970;;;;
2023/04/01 01:51:01;;;;;;;1.0;1.0;;;;;;;9.9;100.0;98970;;;;
2023/04/01 01:52:00;;;;;;;1.0;1.0;;;;;;;9.8;100.0;98970;;;;
2023/04/01 01:53:03;;;;;;;1.0;1.0;;;;;;;9.8;100.0;98970;;;;
2023/04/01 01:54:00;;;;;;;1.0;1.0;;;;;;;9.8;100.0;98970;;;;
2023/04/01 01:55:00;;;;;;;1.0;1.0;;;;;;;9.8;100.0;98970;;;;
2023/04/01 01:56:01;;;;;;;0.9;0.9;;;;;;;9.8;100.0;98980;;;;
2023/04/01 01:57:05;;;;;;;0.9;0.9;;;;;;;9.8;100.0;98980;;;;
2023/04/01 01:58:04;;;;;;;0.9;0.9;;;;;;;9.8;100.0;98970;;;;
2023/04/01 01:59:03;;;;;;;0.9;0.9;;;;;;;9.8;100.0;98970;;;;
2023/04/01 02:00:04;;;;;;;0.9;0.9;;;;;;;9.9;100.0;98980;;;;
2023/04/01 02:01:02;;;;;;;0.9;0.9;;;;;;;9.9;100.0;98980;;;;
2023/04/01 02:02:07;;;;;;;0.9;0.9;;;;;;;9.9;100.0;98980;;;;
2023/04/01 02:03:01;;;;;;;0.9;0.9;;;;;;;9.9;100.0;98980;;;;
2023/04/01 02:04:01;;;;;;;0.9;0.9;;;;;;;9.9;100.0;98980;;;;
2023/04/01 02:05:01;;;;;;;0.9;0.9;;;;;;;9.9;100.0;98980;;;;
2023/04/01 02:06:01;;;;;;;0.9;0.9;;;;;;;9.9;100.0;98980;;;;
2023/04/01 02:07:03;;;;;;;0.9;0.9;;;;;;;9.9;100.0;98980;;;;
2023/04/01 02:08:10;;;;;;;0.9;0.9;;;;;;;9.8;100.0;98980;;;;
2023/04/01 02:09:02;;;;;;;0.9;0.9;;;;;;;9.8;100.0;98980;;;;
2023/04/01 02:10:01;;;;;;;0.9;0.9;;;;;;;9.8;100.0;98980;;;;
2023/04/01 02:11:04;;;;;;;0.9;0.9;;;;;;;9.8;100.0;98980;;;;
2023/04/01 02:12:03;;;;;;;0.9;0.9;;;;;;;9.8;100.0;98980;;;;
2023/04/01 02:13:05;;;;;;;0.9;0.9;;;;;;;9.8;100.0;98980;;;;
2023/04/01 02:14:01;;;;;;;0.9;0.9;;;;;;;9.8;100.0;98980;;;;
2023/04/01 02:15:05;;;;;;;0.9;0.9;;;;;;;9.8;100.0;98980;;;;
2023/04/01 02:16:04;;;;;;;1.0;1.0;;;;;;;9.8;100.0;98990;;;;
2023/04/01 02:17:05;;;;;;;1.0;1.0;;;;;;;9.8;100.0;98990;;;;
2023/04/01 02:18:01;;;;;;;1.0;1.0;;;;;;;9.8;100.0;98990;;;;
2023/04/01 02:19:02;;;;;;;1.0;1.0;;;;;;;9.8;100.0;98990;;;;
2023/04/01 02:20:01;;;;;;;1.0;1.0;;;;;;;9.8;100.0;98990;;;;
2023/04/01 02:21:00;;;;;;;1.0;1.0;;;;;;;9.8;100.0;98990;;;;
2023/04/01 02:22:02;;;;;;;1.0;1.0;;;;;;;9.8;100.0;98990;;;;
2023/04/01 02:23:01;;;;;;;1.0;1.0;;;;;;;9.8;100.0;98990;;;;
2023/04/01 02:24:02;;;;;;;1.0;1.0;;;;;;;9.9;100.0;98990;;;;
2023/04/01 02:25:04;;;;;;;1.0;1.0;;;;;;;9.9;100.0;98990;;;;
2023/04/01 02:26:01;;;;;;;1.0;1.0;;;;;;;9.9;100.0;98990;;;;
2023/04/01 02:27:01;;;;;;;1.0;1.0;;;;;;;9.9;100.0;98990;;;;
2023/04/01 02:28:02;;;;;;;1.0;1.0;;;;;;;9.8;100.0;98990;;;;
2023/04/01 02:29:01;;;;;;;1.0;1.0;;;;;;;9.8;100.0;98990;;;;
2023/04/01 02:30:00;;;;;;;1.0;1.0;;;;;;;9.8;100.0;98990;;;;
2023/04/01 02:31:02;;;;;;;1.0;1.0;;;;;;;9.8;100.0;98990;;;;
2023/04/01 02:32:01;;;;;;;1.0;1.0;;;;;;;9.7;100.0;98990;;;;
2023/04/01 02:33:01;;;;;;;1.0;1.0;;;;;;;9.7;100.0;98990;;;;
2023/04/01 02:34:02;;;;;;;1.0;1.0;;;;;;;9.8;100.0;98990;;;;
2023/04/01 02:35:05;;;;;;;1.0;1.0;;;;;;;9.8;100.0;98990;;;;
2023/04/01 02:36:00;;;;;;;1.1;1.1;;;;;;;9.7;100.0;99000;;;;
2023/04/01 02:37:00;;;;;;;1.1;1.1;;;;;;;9.7;100.0;99000;;;;
2023/04/01 02:38:01;;;;;;;1.1;1.1;;;;;;;9.8;100.0;99000;;;;
2023/04/01 02:39:04;;;;;;;1.1;1.1;;;;;;;9.8;100.0;99000;;;;
2023/04/01 02:40:02;;;;;;;1.1;1.1;;;;;;;9.8;100.0;99000;;;;
2023/04/01 02:41:02;;;;;;;1.1;1.1;;;;;;;9.8;100.0;99000;;;;
2023/04/01 02:42:00;;;;;;;1.1;1.1;;;;;;;9.8;100.0;98990;;;;
2023/04/01 02:43:00;;;;;;;1.1;1.1;;;;;;;9.8;100.0;98990;;;;
2023/04/01 02:44:00;;;;;;;1.1;1.1;;;;;;;9.8;100.0;99000;;;;
2023/04/01 02:45:00;;;;;;;1.1;1.1;;;;;;;9.8;100.0;99000;;;;
2023/04/01 02:46:01;;;;;;;1.1;1.1;;;;;;;9.8;100.0;99000;;;;
2023/04/01 02:47:01;;;;;;;1.1;1.1;;;;;;;9.8;100.0;99000;;;;
2023/04/01 02:48:00;;;;;;;1.1;1.1;;;;;;;9.7;100.0;99010;;;;
2023/04/01 02:49:00;;;;;;;1.1;1.1;;;;;;;9.7;100.0;99010;;;;
2023/04/01 02:50:00;;;;;;;1.1;1.1;;;;;;;9.6;100.0;99000;;;;
2023/04/01 02:51:00;;;;;;;1.1;1.1;;;;;;;9.6;100.0;99000;;;;
2023/04/01 02:52:00;;;;;;;1.1;1.1;;;;;;;9.7;100.0;99010;;;;
2023/04/01 02:53:03;;;;;;;1.1;1.1;;;;;;;9.7;100.0;99010;;;;
2023/04/01 02:54:00;;;;;;;1.1;1.1;;;;;;;9.6;100.0;99010;;;;
2023/04/01 02:55:00;;;;;;;0.9;0.9;;;;;;;9.6;100.0;99010;;;;
2023/04/01 02:56:00;;;;;;;0.9;0.9;;;;;;;9.5;100.0;99010;;;;
2023/04/01 02:57:00;;;;;;;0.9;0.9;;;;;;;9.5;100.0;99010;;;;
2023/04/01 02:58:00;;;;;;;0.9;0.9;;;;;;;9.6;100.0;99010;;;;
2023/04/01 02:59:00;;;;;;;0.9;0.9;;;;;;;9.6;100.0;99010;;;;
2023/04/01 03:00:00;;;;;;;0.9;0.9;;;;;;;9.5;100.0;99010;;;;
2023/04/01 03:01:00;;;;;;;0.9;0.9;;;;;;;9.5;100.0;99010;;;;
2023/04/01 03:02:00;;;;;;;0.9;0.9;;;;;;;9.5;100.0;99020;;;;
2023/04/01 03:03:02;;;;;;;0.9;0.9;;;;;;;9.5;100.0;99020;;;;
2023/04/01 03:04:00;;;;;;;0.9;0.9;;;;;;;9.5;100.0;99020;;;;
2023/04/01 03:05:00;;;;;;;0.9;0.9;;;;;;;9.5;100.0;99020;;;;
2023/04/01 03:06:08;;;;;;;0.9;0.9;;;;;;;9.6;100.0;99020;;;;
2023/04/01 03:07:00;;;;;;;0.9;0.9;;;;;;;9.6;100.0;99020;;;;
2023/04/01 03:08:00;;;;;;;0.9;0.9;;;;;;;9.5;100.0;99020;;;;
2023/04/01 03:09:00;;;;;;;0.9;0.9;;;;;;;9.5;100.0;99020;;;;
2023/04/01 03:10:00;;;;;;;0.9;0.9;;;;;;;9.6;100.0;99020;;;;
2023/04/01 03:11:00;;;;;;;0.9;0.9;;;;;;;9.6;100.0;99020;;;;
2023/04/01 03:12:00;;;;;;;0.9;0.9;;;;;;;9.6;100.0;99020;;;;
2023/04/01 03:13:00;;;;;;;0.9;0.9;;;;;;;9.6;100.0;99020;;;;
2023/04/01 03:14:00;;;;;;;0.9;0.9;;;;;;;9.6;100.0;99020;;;;
2023/04/01 03:15:11;;;;;;;0.9;0.9;;;;;;;9.6;100.0;99020;;;;
2023/04/01 03:16:01;;;;;;;0.9;0.9;;;;;;;9.6;100.0;99030;;;;
2023/04/01 03:17:00;;;;;;;0.9;0.9;;;;;;;9.6;100.0;99030;;;;
2023/04/01 03:18:00;;;;;;;0.9;0.9;;;;;;;9.5;100.0;99030;;;;
2023/04/01 03:19:01;;;;;;;0.9;0.9;;;;;;;9.5;100.0;99030;;;;
2023/04/01 03:20:00;;;;;;;0.9;0.9;;;;;;;9.5;100.0;99030;;;;
2023/04/01 03:21:10;;;;;;;0.9;0.9;;;;;;;9.5;100.0;99030;;;;
2023/04/01 03:22:00;;;;;;;0.9;0.9;;;;;;;9.5;100.0;99030;;;;
2023/04/01 03:23:00;;;;;;;0.9;0.9;;;;;;;9.5;100.0;99030;;;;
2023/04/01 03:24:00;;;;;;;0.9;0.9;;;;;;;9.5;100.0;99030;;;;
2023/04/01 03:25:01;;;;;;;0.9;0.9;;;;;;;9.5;100.0;99030;;;;
2023/04/01 03:26:00;;;;;;;0.9;0.9;;;;;;;9.5;100.0;99030;;;;
2023/04/01 03:27:00;;;;;;;0.9;0.9;;;;;;;9.5;100.0;99030;;;;
2023/04/01 03:28:00;;;;;;;0.9;0.9;;;;;;;9.5;100.0;99030;;;;
2023/04/01 03:29:00;;;;;;;0.9;0.9;;;;;;;9.5;100.0;99030;;;;
2023/04/01 03:30:01;;;;;;;0.9;0.9;;;;;;;9.6;100.0;99030;;;;
2023/04/01 03:31:00;;;;;;;0.9;0.9;;;;;;;9.6;100.0;99030;;;;
2023/04/01 03:32:00;;;;;;;0.9;0.9;;;;;;;9.6;100.0;99030;;;;
2023/04/01 03:33:00;;;;;;;0.9;0.9;;;;;;;9.6;100.0;99030;;;;
2023/04/01 03:34:00;;;;;;;0.9;0.9;;;;;;;9.5;100.0;99030;;;;
2023/04/01 03:35:00;;;;;;;0.9;0.9;;;;;;;9.5;100.0;99030;;;;
2023/04/01 03:36:00;;;;;;;0.9;0.9;;;;;;;9.6;100.0;99040;;;;
2023/04/01 03:37:00;;;;;;;0.9;0.9;;;;;;;9.6;100.0;99040;;;;
2023/04/01 03:38:00;;;;;;;0.9;0.9;;;;;;;9.5;100.0;99030;;;;
2023/04/01 03:39:00;;;;;;;0.9;0.9;;;;;;;9.5;100.0;99030;;;;
2023/04/01 03:40:00;;;;;;;0.9;0.9;;;;;;;9.5;100.0;99040;;;;
2023/04/01 03:41:00;;;;;;;0.9;0.9;;;;;;;9.5;100.0;99040;;;;
2023/04/01 03:42:00;;;;;;;0.9;0.9;;;;;;;9.5;100.0;99040;;;;
2023/04/01 03:43:00;;;;;;;0.9;0.9;;;;;;;9.5;100.0;99040;;;;
2023/04/01 03:44:00;;;;;;;0.9;0.9;;;;;;;9.5;100.0;99040;;;;
2023/04/01 03:45:01;;;;;;;0.9;0.9;;;;;;;9.5;100.0;99040;;;;
2023/04/01 03:46:00;;;;;;;0.9;0.9;;;;;;;9.4;100.0;99030;;;;
2023/04/01 03:47:00;;;;;;;0.9;0.9;;;;;;;9.4;100.0;99030;;;;
2023/04/01 03:48:00;;;;;;;0.9;0.9;;;;;;;9.5;100.0;99030;;;;
2023/04/01 03:49:00;;;;;;;0.9;0.9;;;;;;;9.5;100.0;99030;;;;
2023/04/01 03:50:00;;;;;;;0.9;0.9;;;;;;;9.4;100.0;99040;;;;
2023/04/01 03:51:00;;;;;;;0.9;0.9;;;;;;;9.4;100.0;99040;;;;
2023/04/01 03:52:00;;;;;;;0.9;0.9;;;;;;;9.5;100.0;99030;;;;
2023/04/01 03:53:00;;;;;;;0.9;0.9;;;;;;;9.5;100.0;99030;;;;
2023/04/01 03:54:00;;;;;;;0.9;0.9;;;;;;;9.4;100.0;99040;;;;
2023/04/01 03:55:01;;;;;;;1.0;1.0;;;;;;;9.4;100.0;99040;;;;
2023/04/01 03:56:05;;;;;;;1.0;1.0;;;;;;;9.5;100.0;99040;;;;
2023/04/01 03:57:00;;;;;;;1.0;1.0;;;;;;;9.5;100.0;99040;;;;
2023/04/01 03:58:02;;;;;;;1.0;1.0;;;;;;;9.5;100.0;99040;;;;
2023/04/01 03:59:02;;;;;;;1.0;1.0;;;;;;;9.5;100.0;99040;;;;
2023/04/01 04:00:00;;;;;;;1.0;1.0;;;;;;;9.5;100.0;99040;;;;
2023/04/01 04:01:00;;;;;;;1.0;1.0;;;;;;;9.5;100.0;99040;;;;
2023/04/01 04:02:00;;;;;;;1.0;1.0;;;;;;;9.4;100.0;99050;;;;
2023/04/01 04:03:00;;;;;;;1.0;1.0;;;;;;;9.4;100.0;99050;;;;
2023/04/01 04:04:00;;;;;;;1.0;1.0;;;;;;;9.4;100.0;99040;;;;
2023/04/01 04:05:00;;;;;;;1.0;1.0;;;;;;;9.4;100.0;99040;;;;
2023/04/01 04:06:00;;;;;;;1.0;1.0;;;;;;;9.4;100.0;99050;;;;
2023/04/01 04:07:00;;;;;;;1.0;1.0;;;;;;;9.4;100.0;99050;;;;
2023/04/01 04:08:01;;;;;;;1.0;1.0;;;;;;;9.3;100.0;99050;;;;
2023/04/01 04:09:00;;;;;;;1.0;1.0;;;;;;;9.3;100.0;99050;;;;
2023/04/01 04:10:00;;;;;;;1.0;1.0;;;;;;;9.1;100.0;99050;;;;
2023/04/01 04:11:00;;;;;;;1.0;1.0;;;;;;;9.1;100.0;99050;;;;
2023/04/01 04:12:00;;;;;;;1.0;1.0;;;;;;;9.2;100.0;99050;;;;
2023/04/01 04:13:00;;;;;;;1.0;1.0;;;;;;;9.2;100.0;99050;;;;
2023/04/01 04:14:01;;;;;;;1.0;1.0;;;;;;;9.1;100.0;99060;;;;
2023/04/01 04:15:00;;;;;;;1.1;1.1;;;;;;;9.1;100.0;99060;;;;
2023/04/01 04:16:00;;;;;;;1.1;1.1;;;;;;;9.2;100.0;99060;;;;
2023/04/01 04:17:00;;;;;;;1.1;1.1;;;;;;;9.2;100.0;99060;;;;
2023/04/01 04:18:00;;;;;;;1.1;1.1;;;;;;;9.2;100.0;99060;;;;
2023/04/01 04:19:00;;;;;;;1.1;1.1;;;;;;;9.2;100.0;99060;;;;
2023/04/01 04:20:01;;;;;;;1.1;1.1;;;;;;;9.2;100.0;99060;;;;
2023/04/01 04:21:00;;;;;;;1.1;1.1;;;;;;;9.2;100.0;99060;;;;
2023/04/01 04:22:01;;;;;;;1.1;1.1;;;;;;;9.2;100.0;99070;;;;
2023/04/01 04:23:00;;;;;;;1.1;1.1;;;;;;;9.2;100.0;99070;;;;
2023/04/01 04:24:01;;;;;;;1.1;1.1;;;;;;;9.2;100.0;99070;;;;
2023/04/01 04:25:00;;;;;;;1.1;1.1;;;;;;;9.2;100.0;99070;;;;
2023/04/01 04:26:02;;;;;;;1.1;1.1;;;;;;;9.3;100.0;99070;;;;
2023/04/01 04:27:00;;;;;;;1.1;1.1;;;;;;;9.3;100.0;99070;;;;
2023/04/01 04:28:00;;;;;;;1.1;1.1;;;;;;;9.2;100.0;99070;;;;
2023/04/01 04:29:01;;;;;;;1.1;1.1;;;;;;;9.2;100.0;99070;;;;
2023/04/01 04:30:00;;;;;;;1.1;1.1;;;;;;;9.2;100.0;99070;;;;
2023/04/01 04:31:01;;;;;;;1.1;1.1;;;;;;;9.2;100.0;99070;;;;
2023/04/01 04:32:00;;;;;;;1.1;1.1;;;;;;;9.2;100.0;99070;;;;
2023/04/01 04:33:01;;;;;;;1.1;1.1;;;;;;;9.2;100.0;99070;;;;
2023/04/01 04:34:01;;;;;;;1.1;1.1;;;;;;;9.2;100.0;99080;;;;
2023/04/01 04:35:00;;;;;;;1.0;1.0;;;;;;;9.2;100.0;99080;;;;
2023/04/01 04:36:00;;;;;;;1.0;1.0;;;;;;;9.3;100.0;99070;;;;
2023/04/01 04:37:00;;;;;;;1.0;1.0;;;;;;;9.3;100.0;99070;;;;
2023/04/01 04:38:00;;;;;;;1.0;1.0;;;;;;;9.3;100.0;99080;;;;
2023/04/01 04:39:02;;;;;;;1.0;1.0;;;;;;;9.3;100.0;99080;;;;
2023/04/01 04:40:00;;;;;;;1.0;1.0;;;;;;;9.2;100.0;99080;;;;
2023/04/01 04:41:00;;;;;;;1.0;1.0;;;;;;;9.2;100.0;99080;;;;
2023/04/01 04:42:00;;;;;;;1.0;1.0;;;;;;;9.3;100.0;99070;;;;
2023/04/01 04:43:00;;;;;;;1.0;1.0;;;;;;;9.3;100.0;99070;;;;
2023/04/01 04:44:00;;;;;;;1.0;1.0;;;;;;;9.2;100.0;99080;;;;
2023/04/01 04:45:00;;;;;;;1.0;1.0;;;;;;;9.2;100.0;99080;;;;
2023/04/01 04:46:04;;;;;;;1.0;1.0;;;;;;;9.2;100.0;99080;;;;
2023/04/01 04:47:01;;;;;;;1.0;1.0;;;;;;;9.2;100.0;99080;;;;
2023/04/01 04:48:00;;;;;;;1.0;1.0;;;;;;;9.2;100.0;99090;;;;
2023/04/01 04:49:00;;;;;;;1.0;1.0;;;;;;;9.2;100.0;99090;;;;
2023/04/01 04:50:00;;;;;;;1.0;1.0;;;;;;;9.3;100.0;99080;;;;
2023/04/01 04:51:01;;;;;;;1.0;1.0;;;;;;;9.3;100.0;99080;;;;
2023/04/01 04:52:00;;;;;;;1.0;1.0;;;;;;;9.3;100.0;99080;;;;
2023/04/01 04:53:00;;;;;;;1.0;1.0;;;;;;;9.3;100.0;99080;;;;
2023/04/01 04:54:00;;;;;;;1.0;1.0;;;;;;;9.2;100.0;99080;;;;
2023/04/01 04:55:00;;;;;;;1.1;1.1;;;;;;;9.2;100.0;99080;;;;
2023/04/01 04:56:00;;;;;;;1.1;1.1;;;;;;;9.2;100.0;99090;;;;
2023/04/01 04:57:00;;;;;;;1.1;1.1;;;;;;;9.2;100.0;99090;;;;
2023/04/01 04:58:01;;;;;;;1.1;1.1;;;;;;;9.2;100.0;99090;;;;
2023/04/01 04:59:00;;;;;;;1.1;1.1;;;;;;;9.2;100.0;99090;;;;
2023/04/01 05:00:00;;;;;;;1.1;1.1;;;;;;;9.1;100.0;99100;;;;
2023/04/01 05:01:10;;;;;;;1.1;1.1;;;;;;;9.1;100.0;99100;;;;
2023/04/01 05:02:01;;;;;;;1.1;1.1;;;;;;;9.1;100.0;99100;;;;
2023/04/01 05:03:00;;;;;;;1.1;1.1;;;;;;;9.1;100.0;99100;;;;
2023/04/01 05:04:00;;;;;;;1.1;1.1;;;;;;;9.1;100.0;99100;;;;
2023/04/01 05:05:00;;;;;;;1.1;1.1;;;;;;;9.1;100.0;99100;;;;
2023/04/01 05:06:00;;;;;;;1.1;1.1;;;;;;;9.1;100.0;99100;;;;
2023/04/01 05:07:00;;;;;;;1.1;1.1;;;;;;;9.1;100.0;99100;;;;
2023/04/01 05:08:00;;;;;;;1.1;1.1;;;;;;;9.1;100.0;99100;;;;
2023/04/01 05:09:00;;;;;;;1.1;1.1;;;;;;;9.1;100.0;99100;;;;
2023/04/01 05:10:00;;;;;;;1.1;1.1;;;;;;;9.1;100.0;99100;;;;
2023/04/01 05:11:01;;;;;;;1.1;1.1;;;;;;;9.1;100.0;99100;;;;
2023/04/01 05:12:00;;;;;;;1.1;1.1;;;;;;;9.1;100.0;99110;;;;
2023/04/01 05:13:00;;;;;;;1.1;1.1;;;;;;;9.1;100.0;99110;;;;
2023/04/01 05:14:00;;;;;;;1.1;1.1;;;;;;;9.2;100.0;99110;;;;
2023/04/01 05:15:00;;;;;;;1.0;1.0;;;;;;;9.2;100.0;99110;;;;
2023/04/01 05:16:00;;;;;;;1.0;1.0;;;;;;;9.1;100.0;99120;;;;
2023/04/01 05:17:00;;;;;;;1.0;1.0;;;;;;;9.1;100.0;99120;;;;
2023/04/01 05:18:00;;;;;;;1.0;1.0;;;;;;;9.1;100.0;99120;;;;
2023/04/01 05:19:00;;;;;;;1.0;1.0;;;;;;;9.1;100.0;99120;;;;
2023/04/01 05:20:01;;;;;;;1.0;1.0;;;;;;;9.1;100.0;99120;;;;
2023/04/01 05:21:00;;;;;;;1.0;1.0;;;;;;;9.1;100.0;99120;;;;
2023/04/01 05:22:00;;;;;;;1.0;1.0;;;;;;;9.0;100.0;99120;;;;
2023/04/01 05:23:00;;;;;;;1.0;1.0;;;;;;;9.0;100.0;99120;;;;
2023/04/01 05:24:00;;;;;;;1.0;1.0;;;;;;;9.1;100.0;99130;;;;
2023/04/01 05:25:00;;;;;;;1.0;1.0;;;;;;;9.1;100.0;99130;;;;
2023/04/01 05:26:10;;;;;;;1.0;1.0;;;;;;;9.1;100.0;99130;;;;
2023/04/01 05:27:00;;;;;;;1.0;1.0;;;;;;;9.1;100.0;99130;;;;
2023/04/01 05:28:00;;;;;;;1.0;1.0;;;;;;;9.0;100.0;99130;;;;
2023/04/01 05:29:00;;;;;;;1.0;1.0;;;;;;;9.0;100.0;99130;;;;
2023/04/01 05:30:00;;;;;;;1.0;1.0;;;;;;;9.0;100.0;99140;;;;
2023/04/01 05:31:01;;;;;;;1.0;1.0;;;;;;;9.0;100.0;99140;;;;
2023/04/01 05:32:00;;;;;;;1.0;1.0;;;;;;;9.1;100.0;99140;;;;
2023/04/01 05:33:00;;;;;;;1.0;1.0;;;;;;;9.1;100.0;99140;;;;
2023/04/01 05:34:00;;;;;;;1.0;1.0;;;;;;;9.1;100.0;99140;;;;
2023/04/01 05:35:00;;;;;;;0.9;0.9;;;;;;;9.1;100.0;99140;;;;
2023/04/01 05:36:10;;;;;;;0.9;0.9;;;;;;;9.2;100.0;99150;;;;
2023/04/01 05:37:00;;;;;;;0.9;0.9;;;;;;;9.2;100.0;99150;;;;
2023/04/01 05:38:00;;;;;;;0.9;0.9;;;;;;;9.2;100.0;99140;;;;
2023/04/01 05:39:00;;;;;;;0.9;0.9;;;;;;;9.2;100.0;99140;;;;
2023/04/01 05:40:00;;;;;;;0.9;0.9;;;;;;;9.2;100.0;99150;;;;
2023/04/01 05:41:01;;;;;;;0.9;0.9;;;;;;;9.2;100.0;99150;;;;
2023/04/01 05:42:00;;;;;;;0.9;0.9;;;;;;;9.1;100.0;99160;;;;
2023/04/01 05:43:00;;;;;;;0.9;0.9;;;;;;;9.1;100.0;99160;;;;
2023/04/01 05:44:00;;;;;;;0.9;0.9;;;;;;;9.1;100.0;99150;;;;
2023/04/01 05:45:00;;;;;;;0.9;0.9;;;;;;;9.1;100.0;99150;;;;
2023/04/01 05:46:00;;;;;;;0.9;0.9;;;;;;;9.0;100.0;99160;;;;
2023/04/01 05:47:01;;;;;;;0.9;0.9;;;;;;;9.0;100.0;99160;;;;
2023/04/01 05:48:00;;;;;;;0.9;0.9;;;;;;;9.0;100.0;99170;;;;
2023/04/01 05:49:00;;;;;;;0.9;0.9;;;;;;;9.0;100.0;99170;;;;
2023/04/01 05:50:00;;;;;;;0.9;0.9;;;;;;;9.1;100.0;99170;;;;
2023/04/01 05:51:01;;;;;;;0.9;0.9;;;;;;;9.1;100.0;99170;;;;
2023/04/01 05:52:00;;;;;;;0.9;0.9;;;;;;;9.1;100.0;99170;;;;
2023/04/01 05:53:00;;;;;;;0.9;0.9;;;;;;;9.1;100.0;99170;;;;
2023/04/01 05:54:00;;;;;;;0.9;0.9;;;;;;;9.2;100.0;99180;;;;
2023/04/01 05:55:00;;;;;;;1.0;1.0;;;;;;;9.2;100.0;99180;;;;
2023/04/01 05:56:02;;;;;;;1.0;1.0;;;;;;;9.1;100.0;99180;;;;
2023/04/01 05:57:00;;;;;;;1.0;1.0;;;;;;;9.1;100.0;99180;;;;
2023/04/01 05:58:00;;;;;;;1.0;1.0;;;;;;;9.2;100.0;99180;;;;
2023/04/01 05:59:00;;;;;;;1.0;1.0;;;;;;;9.2;100.0;99180;;;;
2023/04/01 06:00:00;;;;;;;1.0;1.0;;;;;;;9.3;100.0;99180;;;;
2023/04/01 06:01:11;;;;;;;1.0;1.0;;;;;;;9.3;100.0;99180;;;;
2023/04/01 06:02:01;;;;;;;1.0;1.0;;;;;;;9.1;100.0;99180;;;;
2023/04/01 06:03:00;;;;;;;1.0;1.0;;;;;;;9.1;100.0;99180;;;;
2023/04/01 06:04:01;;;;;;;1.0;1.0;;;;;;;9.2;100.0;99180;;;;
2023/04/01 06:05:10;;;;;;;1.0;1.0;;;;;;;9.2;100.0;99180;;;;
2023/04/01 06:06:00;;;;;;;1.0;1.0;;;;;;;9.1;100.0;99190;;;;
2023/04/01 06:07:00;;;;;;;1.0;1.0;;;;;;;9.1;100.0;99190;;;;
2023/04/01 06:08:09;;;;;;;1.0;1.0;;;;;;;9.1;100.0;99190;;;;
2023/04/01 06:09:07;;;;;;;1.0;1.0;;;;;;;9.1;100.0;99190;;;;
2023/04/01 06:10:00;;;;;;;1.0;1.0;;;;;;;9.2;100.0;99200;;;;
2023/04/01 06:11:08;;;;;;;1.0;1.0;;;;;;;9.2;100.0;99200;;;;
2023/04/01 06:12:08;;;;;;;1.0;1.0;;;;;;;9.2;100.0;99200;;;;
2023/04/01 06:13:10;;;;;;;1.0;1.0;;;;;;;9.2;100.0;99200;;;;
2023/04/01 06:14:10;;;;;;;1.0;1.0;;;;;;;9.2;100.0;99200;;;;
2023/04/01 06:15:04;;;;;;;1.0;1.0;;;;;;;9.2;100.0;99200;;;;
2023/04/01 06:16:01;;;;;;;1.0;1.0;;;;;;;9.2;100.0;99210;;;;
2023/04/01 06:17:07;;;;;;;1.0;1.0;;;;;;;9.2;100.0;99210;;;;
2023/04/01 06:18:02;;;;;;;1.0;1.0;;;;;;;9.2;100.0;99210;;;;
2023/04/01 06:19:00;;;;;;;1.0;1.0;;;;;;;9.2;100.0;99210;;;;
2023/04/01 06:20:08;;;;;;;1.0;1.0;;;;;;;9.3;100.0;99210;;;;
2023/04/01 06:21:09;;;;;;;1.0;1.0;;;;;;;9.3;100.0;99210;;;;
2023/04/01 06:22:10;;;;;;;1.0;1.0;;;;;;;9.2;100.0;99220;;;;
2023/04/01 06:23:05;;;;;;;1.0;1.0;;;;;;;9.2;100.0;99220;;;;
2023/04/01 06:24:07;;;;;;;1.0;1.0;;;;;;;9.2;100.0;99220;;;;
2023/04/01 06:25:10;;;;;;;1.0;1.0;;;;;;;9.2;100.0;99220;;;;
2023/04/01 06:26:10;;;;;;;1.0;1.0;;;;;;;9.3;100.0;99220;;;;
2023/04/01 06:27:07;;;;;;;1.0;1.0;;;;;;;9.3;100.0;99220;;;;
2023/04/01 06:28:10;;;;;;;1.0;1.0;;;;;;;9.3;100.0;99230;;;;
2023/04/01 06:29:03;;;;;;;1.0;1.0;;;;;;;9.3;100.0;99230;;;;
2023/04/01 06:30:10;;;;;;;1.0;1.0;;;;;;;9.3;100.0;99230;;;;
2023/04/01 06:31:11;;;;;;;1.0;1.0;;;;;;;9.3;100.0;99230;;;;
2023/04/01 06:32:12;;;;;;;1.0;1.0;;;;;;;9.4;100.0;99230;;;;
2023/04/01 06:33:10;;;;;;;1.0;1.0;;;;;;;9.4;100.0;99230;;;;
2023/04/01 06:34:10;;;;;;;0.9;0.9;;;;;;;9.3;100.0;99240;;;;
2023/04/01 06:35:03;;;;;;;0.9;0.9;;;;;;;9.3;100.0;99240;;;;